Time;durP1;ratioP1;P1;durP2;ratioP2;P2;SDS_P1;SDS_P2;PMS_P1;PMS_P2;Temp;Humidity;BMP_temperature;BMP_pressure;BME280_temperature;BME280_humidity;BME280_pressure;Samples;Min_cycle;Max_cycle;Signal;HPM_P1;HPM_P2
2022/07/12 00:00:54;;;;;;;1.63;1.55;;;;;;;18.09;62.38;96139.19;5085515;28;20080;-58
2022/07/12 00:03:19;;;;;;;2.85;1.70;;;;;;;18.07;62.62;96137.72;5078568;28;20017;-58
2022/07/12 00:05:44;;;;;;;1.70;1.60;;;;;;;18.05;64.41;96140.56;5083546;28;20035;-58
2022/07/12 00:08:10;;;;;;;4.22;1.92;;;;;;;18.03;63.58;96138.09;5085863;28;20024;-58
2022/07/12 00:10:35;;;;;;;1.60;1.50;;;;;;;17.98;63.43;96143.06;5074625;28;20024;-59
2022/07/12 00:13:02;;;;;;;2.55;1.58;;;;;;;17.96;62.63;96131.75;5085785;28;20024;-58
2022/07/12 00:15:27;;;;;;;2.30;1.63;;;;;;;17.85;63.50;96129.53;5085108;28;20031;-58
2022/07/12 00:17:52;;;;;;;3.97;1.50;;;;;;;17.79;63.51;96138.19;5084997;28;20659;-59
2022/07/12 00:20:18;;;;;;;1.90;1.65;;;;;;;17.73;64.25;96137.09;5079191;28;20119;-59
2022/07/12 00:22:43;;;;;;;2.05;1.60;;;;;;;17.68;64.64;96140.28;5079624;28;20024;-59
2022/07/12 00:25:09;;;;;;;1.58;1.48;;;;;;;17.65;64.98;96139.78;5077248;28;20422;-58
2022/07/12 00:27:34;;;;;;;1.50;1.40;;;;;;;17.64;65.41;96138.13;5076758;28;20024;-59
2022/07/12 00:30:00;;;;;;;1.60;1.50;;;;;;;17.63;64.42;96131.16;5082224;28;20024;-59
2022/07/12 00:32:25;;;;;;;5.18;1.52;;;;;;;17.57;64.33;96146.81;5095938;28;20133;-59
2022/07/12 00:34:50;;;;;;;1.70;1.60;;;;;;;17.53;68.10;96131.38;5080132;28;20040;-59
2022/07/12 00:37:16;;;;;;;1.60;1.50;;;;;;;17.43;66.22;96143.06;5085437;28;20105;-58
2022/07/12 00:39:41;;;;;;;3.08;1.40;;;;;;;17.35;66.29;96148.41;5088177;28;20038;-59
2022/07/12 00:42:07;;;;;;;1.48;1.40;;;;;;;17.28;66.04;96147.47;5083953;28;20028;-59
2022/07/12 00:44:33;;;;;;;1.52;1.42;;;;;;;17.35;65.21;96143.09;5083493;28;20134;-59
2022/07/12 00:47:01;;;;;;;1.65;1.27;;;;;;;17.30;65.09;96151.63;5081601;28;20032;-59
2022/07/12 00:49:27;;;;;;;2.50;1.45;;;;;;;17.25;66.08;96151.31;5086080;28;20042;-59
2022/07/12 00:51:54;;;;;;;1.80;1.65;;;;;;;17.22;66.50;96150.81;5078427;28;20111;-59
2022/07/12 00:54:20;;;;;;;2.33;1.30;;;;;;;17.13;66.49;96150.88;5081658;28;20037;-59
2022/07/12 00:56:46;;;;;;;1.40;1.40;;;;;;;17.07;66.66;96153.38;5064854;28;20034;-58
2022/07/12 00:59:11;;;;;;;1.80;1.70;;;;;;;17.13;66.26;96150.88;5076716;28;20028;-59
2022/07/12 01:01:38;;;;;;;1.48;1.40;;;;;;;17.13;66.06;96145.53;5080267;28;20036;-59
2022/07/12 01:04:04;;;;;;;1.55;1.30;;;;;;;17.12;66.49;96151.84;5080596;28;20089;-58
2022/07/12 01:06:30;;;;;;;2.08;1.80;;;;;;;17.09;67.15;96152.19;5082711;28;20430;-58
2022/07/12 01:08:58;;;;;;;1.27;1.27;;;;;;;17.04;67.78;96152.72;5081075;28;20400;-58
2022/07/12 01:11:24;;;;;;;1.50;1.40;;;;;;;16.98;68.27;96153.38;5071745;28;20068;-59
2022/07/12 01:13:51;;;;;;;1.70;1.60;;;;;;;16.93;69.02;96158.38;5081200;28;20449;-59
2022/07/12 01:16:18;;;;;;;1.45;1.45;;;;;;;16.90;69.36;96151.53;5087635;28;20063;-59
2022/07/12 01:18:44;;;;;;;1.70;1.60;;;;;;;16.86;69.40;96168.84;5085105;28;20043;-59
2022/07/12 01:21:12;;;;;;;2.00;1.73;;;;;;;16.81;69.83;96160.56;5080652;28;20036;-59
2022/07/12 01:23:38;;;;;;;2.58;1.55;;;;;;;16.75;69.46;96174.53;5083797;28;20491;-59
2022/07/12 01:26:04;;;;;;;1.65;1.52;;;;;;;16.69;69.51;96169.88;5080868;28;20029;-59
2022/07/12 01:28:30;;;;;;;2.28;1.70;;;;;;;16.66;69.74;96172.88;5081890;28;20033;-59
2022/07/12 01:30:55;;;;;;;3.63;1.55;;;;;;;16.70;69.88;96174.22;5077835;28;20024;-59
2022/07/12 01:33:21;;;;;;;1.70;1.60;;;;;;;16.72;69.48;96169.56;5081191;28;20646;-58
2022/07/12 01:35:47;;;;;;;2.85;1.80;;;;;;;16.68;70.53;96168.22;5082125;28;20079;-58
2022/07/12 01:38:12;;;;;;;1.67;1.33;;;;;;;16.66;70.38;96170.22;5082453;28;20020;-58
2022/07/12 01:40:38;;;;;;;1.67;1.58;;;;;;;16.64;70.54;96169.56;5085143;28;20020;-58
2022/07/12 01:43:04;;;;;;;1.77;1.65;;;;;;;16.61;70.18;96170.72;5079595;28;20033;-59
2022/07/12 01:45:29;;;;;;;1.70;1.60;;;;;;;16.55;71.55;96166.91;5089167;28;20028;-58
2022/07/12 01:47:58;;;;;;;1.40;1.30;;;;;;;16.52;71.60;96166.41;5085560;28;20028;-59
2022/07/12 01:50:24;;;;;;;1.83;1.70;;;;;;;16.54;71.85;96172.38;5079345;28;20098;-59
2022/07/12 01:52:51;;;;;;;2.15;1.95;;;;;;;16.54;72.10;96169.72;5073784;28;20029;-58
2022/07/12 01:55:18;;;;;;;3.33;1.80;;;;;;;16.55;72.19;96171.38;5075722;28;20107;-59
2022/07/12 01:57:44;;;;;;;1.73;1.63;;;;;;;16.55;72.41;96182.84;5079128;28;20056;-59
2022/07/12 02:00:11;;;;;;;1.80;1.70;;;;;;;16.48;72.78;96179.22;5079232;28;20028;-59
2022/07/12 02:02:38;;;;;;;1.92;1.83;;;;;;;16.42;72.26;96179.88;5086402;28;20118;-59
2022/07/12 02:05:04;;;;;;;1.50;1.40;;;;;;;16.39;72.49;96186.38;5082971;28;20035;-59
2022/07/12 02:07:30;;;;;;;1.50;1.45;;;;;;;16.33;73.08;96181.69;5080481;28;20023;-58
2022/07/12 02:09:55;;;;;;;1.63;1.52;;;;;;;16.26;73.17;96183.34;5072274;28;20085;-58
2022/07/12 02:12:21;;;;;;;1.90;1.52;;;;;;;16.22;73.04;96182.03;5082317;28;20036;-59
2022/07/12 02:14:46;;;;;;;1.50;1.50;;;;;;;16.15;72.19;96179.19;5079267;28;20113;-59
2022/07/12 02:17:12;;;;;;;1.45;1.35;;;;;;;16.17;71.25;96177.22;5083514;28;20020;-59
2022/07/12 02:19:37;;;;;;;1.40;1.35;;;;;;;16.18;71.26;96182.38;5089086;28;20205;-59
2022/07/12 02:22:03;;;;;;;1.60;1.50;;;;;;;16.13;71.46;96182.00;5078955;28;20032;-58
2022/07/12 02:24:28;;;;;;;1.85;1.55;;;;;;;16.12;72.22;96187.50;5079925;28;20032;-59
2022/07/12 02:26:54;;;;;;;1.67;1.55;;;;;;;16.06;72.92;96183.66;5082229;28;20411;-58
2022/07/12 02:29:20;;;;;;;2.63;1.95;;;;;;;16.03;73.63;96182.19;5073447;28;20040;-59
2022/07/12 02:31:45;;;;;;;1.95;1.80;;;;;;;15.98;74.50;96181.84;5079990;28;20032;-58
2022/07/12 02:34:10;;;;;;;5.22;1.95;;;;;;;15.97;74.47;96189.97;5080597;28;20542;-59
2022/07/12 02:36:36;;;;;;;1.67;1.58;;;;;;;15.98;74.05;96181.84;5082716;28;20487;-59
2022/07/12 02:39:04;;;;;;;1.98;1.77;;;;;;;15.98;75.77;96183.69;5087029;28;20024;-59
2022/07/12 02:41:33;;;;;;;3.17;2.13;;;;;;;15.97;75.41;96184.66;5089187;28;20596;-59
2022/07/12 02:43:59;;;;;;;2.15;2.03;;;;;;;15.99;75.40;96178.19;5082331;28;20024;-59
2022/07/12 02:46:25;;;;;;;4.13;1.77;;;;;;;15.98;76.28;96173.88;5085582;28;20028;-59
2022/07/12 02:48:51;;;;;;;1.50;1.40;;;;;;;15.99;75.47;96183.50;5082516;28;20060;-59
2022/07/12 02:51:16;;;;;;;1.83;1.73;;;;;;;15.96;75.01;96181.16;5091824;28;20043;-59
2022/07/12 02:53:41;;;;;;;2.15;1.70;;;;;;;15.94;74.75;96185.81;5083766;28;20032;-59
2022/07/12 02:56:08;;;;;;;3.30;1.60;;;;;;;15.98;73.23;96175.72;5079213;28;20028;-59
2022/07/12 02:58:34;;;;;;;3.83;1.98;;;;;;;15.94;74.92;96179.69;5078177;28;20554;-59
2022/07/12 03:00:59;;;;;;;4.47;2.33;;;;;;;15.97;74.68;96177.53;5088463;28;20104;-59
2022/07/12 03:03:25;;;;;;;2.78;2.58;;;;;;;16.01;74.19;96175.38;5088743;28;20423;-59
2022/07/12 03:05:50;;;;;;;2.92;2.60;;;;;;;15.99;74.89;96175.53;5081454;28;20028;-58
2022/07/12 03:08:16;;;;;;;2.20;2.10;;;;;;;15.94;74.00;96180.50;5078307;28;20021;-59
2022/07/12 03:10:41;;;;;;;2.08;1.98;;;;;;;15.94;73.25;96185.81;5087384;28;20507;-59
2022/07/12 03:13:07;;;;;;;2.47;1.90;;;;;;;15.90;73.33;96185.31;5092349;28;20065;-59
2022/07/12 03:15:33;;;;;;;1.90;1.80;;;;;;;15.95;73.48;96184.81;5091359;28;20111;-59
2022/07/12 03:18:00;;;;;;;1.92;1.83;;;;;;;15.89;74.13;96190.78;5090478;28;20111;-59
2022/07/12 03:20:26;;;;;;;2.90;2.08;;;;;;;15.86;73.61;96193.75;5090574;28;20054;-59
2022/07/12 03:22:53;;;;;;;1.90;1.80;;;;;;;15.85;75.54;96197.41;5084008;28;20046;-58
2022/07/12 03:25:20;;;;;;;2.67;1.95;;;;;;;15.75;75.03;96193.03;5085169;28;20059;-59
2022/07/12 03:27:45;;;;;;;3.70;1.80;;;;;;;15.69;74.35;96193.69;5088936;28;20016;-59
2022/07/12 03:30:12;;;;;;;1.80;1.70;;;;;;;15.72;74.67;96198.69;5097835;28;20031;-59
2022/07/12 03:32:38;;;;;;;1.85;1.75;;;;;;;15.75;73.60;96193.03;5088994;28;20099;-58
2022/07/12 03:35:04;;;;;;;2.30;1.90;;;;;;;15.73;73.75;96200.34;5086510;28;20119;-59
2022/07/12 03:37:47;;;;;;;1.80;1.70;;;;;;;15.68;75.12;96199.16;5093120;28;20025;-59
2022/07/12 03:40:14;;;;;;;1.67;1.65;;;;;;;15.68;74.23;96196.50;5087020;28;20550;-59
2022/07/12 03:42:40;;;;;;;3.30;1.70;;;;;;;15.70;74.04;96202.50;5089012;28;20074;-59
2022/07/12 03:45:06;;;;;;;1.95;1.75;;;;;;;15.65;75.08;96210.94;5084534;28;20449;-59
2022/07/12 03:47:32;;;;;;;3.35;2.00;;;;;;;15.63;76.24;96212.94;5088583;28;20114;-59
2022/07/12 03:49:58;;;;;;;2.28;2.10;;;;;;;15.53;76.18;96220.19;5091734;28;20463;-59
2022/07/12 03:52:24;;;;;;;2.17;1.63;;;;;;;15.49;75.88;96218.84;5078709;28;20403;-59
2022/07/12 03:54:49;;;;;;;2.50;1.83;;;;;;;15.45;75.70;96215.66;5088513;28;20024;-59
2022/07/12 03:57:15;;;;;;;2.10;1.90;;;;;;;15.41;75.73;96225.78;5084034;28;20055;-59
2022/07/12 03:59:45;;;;;;;2.13;2.03;;;;;;;15.45;74.84;96224.47;5079172;28;20024;-59
2022/07/12 04:02:12;;;;;;;2.20;2.10;;;;;;;15.42;74.85;96230.09;5085634;28;20450;-59
2022/07/12 04:04:38;;;;;;;1.80;1.70;;;;;;;15.45;74.93;96235.09;5080177;28;20585;-59
2022/07/12 04:07:05;;;;;;;2.28;1.80;;;;;;;15.45;76.48;96229.78;5081091;28;20465;-59
2022/07/12 04:09:30;;;;;;;2.00;1.90;;;;;;;15.45;75.75;96229.78;5082261;28;20033;-59
2022/07/12 04:11:56;;;;;;;2.88;1.90;;;;;;;15.43;75.73;96233.56;5084523;28;20027;-59
2022/07/12 04:14:21;;;;;;;2.45;2.15;;;;;;;15.43;75.86;96237.06;5084227;28;20118;-58
2022/07/12 04:16:47;;;;;;;2.13;2.03;;;;;;;15.43;75.61;96242.38;5079680;28;20043;-59
2022/07/12 04:19:13;;;;;;;2.25;2.10;;;;;;;15.48;75.05;96241.91;5089232;28;20456;-59
2022/07/12 04:21:38;;;;;;;2.20;2.00;;;;;;;15.50;74.66;96236.41;5091876;28;20031;-59
2022/07/12 04:24:04;;;;;;;2.10;1.65;;;;;;;15.47;74.40;96238.41;5091922;28;20032;-59
2022/07/12 04:26:30;;;;;;;2.28;2.08;;;;;;;15.51;74.06;96235.44;5091660;28;20493;-60
2022/07/12 04:28:55;;;;;;;3.25;1.70;;;;;;;15.54;74.79;96232.44;5087515;28;20024;-58
2022/07/12 04:31:20;;;;;;;3.75;1.90;;;;;;;15.55;75.89;96228.81;5083912;28;20020;-59
2022/07/12 04:33:46;;;;;;;1.92;1.80;;;;;;;15.51;75.52;96228.31;5091724;28;20509;-59
2022/07/12 04:36:11;;;;;;;2.00;1.90;;;;;;;15.51;75.50;96227.47;5091314;28;20035;-59
2022/07/12 04:38:37;;;;;;;3.97;2.10;;;;;;;15.50;77.21;96236.41;5091790;28;20027;-58
2022/07/12 04:41:02;;;;;;;2.40;1.98;;;;;;;15.53;75.67;96238.75;5071942;28;20035;-59
2022/07/12 04:43:27;;;;;;;1.90;1.80;;;;;;;15.54;75.67;96243.06;5091399;28;20036;-59
2022/07/12 04:45:53;;;;;;;3.00;1.80;;;;;;;15.46;75.82;96234.09;5089924;28;20024;-59
2022/07/12 04:48:18;;;;;;;1.58;1.50;;;;;;;15.50;76.38;96244.38;5090948;28;20119;-58
2022/07/12 04:50:43;;;;;;;4.40;1.88;;;;;;;15.45;76.74;96244.84;5091129;28;20096;-59
2022/07/12 04:53:09;;;;;;;2.00;1.90;;;;;;;15.41;77.29;96244.34;5090523;28;20496;-59
2022/07/12 04:55:35;;;;;;;1.95;1.80;;;;;;;15.35;77.76;96246.81;5074405;28;20089;-59
2022/07/12 04:58:01;;;;;;;5.32;1.85;;;;;;;15.41;77.36;96241.69;5083297;28;20209;-59
2022/07/12 05:00:27;;;;;;;2.30;2.10;;;;;;;15.44;76.83;96246.69;5091187;28;20031;-59
2022/07/12 05:02:53;;;;;;;2.95;2.10;;;;;;;15.49;76.67;96242.72;5091659;28;20106;-59
2022/07/12 05:05:19;;;;;;;4.07;2.50;;;;;;;15.49;77.23;96245.38;5091192;28;20104;-59
2022/07/12 05:07:44;;;;;;;2.70;2.50;;;;;;;15.54;78.07;96251.03;5089662;28;20044;-59
2022/07/12 05:10:10;;;;;;;2.50;2.30;;;;;;;15.57;77.50;96256.84;5090790;28;20031;-59
2022/07/12 05:12:35;;;;;;;6.05;2.20;;;;;;;15.63;77.49;96259.84;5090710;28;20023;-59
2022/07/12 05:15:01;;;;;;;2.50;2.10;;;;;;;15.73;77.10;96261.38;5093927;28;20024;-59
2022/07/12 05:17:27;;;;;;;3.80;1.92;;;;;;;15.81;76.59;96262.44;5104182;28;20394;-59
2022/07/12 05:19:52;;;;;;;3.00;2.17;;;;;;;15.86;76.00;96268.09;5097221;28;20020;-59
2022/07/12 05:22:18;;;;;;;1.95;1.85;;;;;;;15.98;75.71;96276.63;5085594;28;20024;-60
2022/07/12 05:24:43;;;;;;;4.20;2.17;;;;;;;16.01;76.48;96274.44;5089935;28;20024;-59
2022/07/12 05:27:09;;;;;;;2.08;1.98;;;;;;;16.06;77.03;96271.31;5090683;28;20024;-59
2022/07/12 05:29:35;;;;;;;3.00;2.55;;;;;;;16.11;77.08;96266.34;5089404;28;20029;-59
2022/07/12 05:32:01;;;;;;;3.45;2.13;;;;;;;16.12;78.37;96268.00;5090617;28;20107;-60
2022/07/12 05:34:27;;;;;;;3.22;2.00;;;;;;;16.20;77.82;96269.03;5090467;28;20020;-59
2022/07/12 05:36:53;;;;;;;2.92;2.00;;;;;;;16.41;77.10;96272.06;5090601;28;20086;-59
2022/07/12 05:39:18;;;;;;;5.55;1.98;;;;;;;16.59;76.93;96269.22;5090089;28;20024;-59
2022/07/12 05:41:44;;;;;;;4.00;2.25;;;;;;;16.71;75.74;96267.06;5089908;28;20490;-58
2022/07/12 05:44:09;;;;;;;2.33;2.15;;;;;;;17.06;72.86;96272.22;5082141;28;20476;-60
2022/07/12 05:46:36;;;;;;;1.80;1.70;;;;;;;17.25;72.64;96271.06;5089950;28;20055;-60
2022/07/12 05:49:02;;;;;;;2.00;1.90;;;;;;;17.40;71.61;96265.00;5109531;28;20385;-59
2022/07/12 05:54:11;;;;;;;1.73;1.63;;;;;;;17.56;69.39;96261.44;5110361;28;20034;-60
2022/07/12 05:56:37;;;;;;;1.92;1.70;;;;;;;17.60;69.53;96257.47;5110583;28;20028;-60
2022/07/12 05:59:02;;;;;;;5.75;2.03;;;;;;;17.66;68.74;96258.59;5110542;28;20393;-59
2022/07/12 06:01:27;;;;;;;2.42;1.70;;;;;;;17.73;67.29;96259.59;5110212;28;20031;-59
2022/07/12 06:03:53;;;;;;;2.45;1.77;;;;;;;17.81;67.64;96262.19;5110045;28;20031;-59
2022/07/12 06:06:18;;;;;;;2.17;1.90;;;;;;;17.98;67.10;96267.44;5110036;28;20032;-59
2022/07/12 06:08:43;;;;;;;1.67;1.67;;;;;;;18.15;66.12;96270.88;5101612;28;20028;-60
2022/07/12 06:11:09;;;;;;;3.05;1.70;;;;;;;18.25;65.71;96262.66;5096246;28;20051;-60
2022/07/12 06:13:34;;;;;;;1.83;1.70;;;;;;;18.40;66.03;96262.72;5110166;28;20027;-59
2022/07/12 06:16:00;;;;;;;2.10;1.77;;;;;;;18.51;66.67;96265.00;5110219;28;20038;-59
2022/07/12 06:18:25;;;;;;;2.00;1.60;;;;;;;18.60;65.95;96260.44;5110089;28;20039;-60
2022/07/12 06:20:51;;;;;;;1.90;1.80;;;;;;;18.71;64.94;96260.00;5110024;28;20523;-59
2022/07/12 06:23:16;;;;;;;2.22;1.70;;;;;;;18.93;64.78;96264.66;5110084;28;20529;-60
2022/07/12 06:25:42;;;;;;;2.45;1.65;;;;;;;19.08;63.72;96262.03;5110281;28;20164;-60
2022/07/12 06:28:07;;;;;;;1.73;1.60;;;;;;;19.26;63.12;96254.53;5093828;28;20065;-60
2022/07/12 06:30:32;;;;;;;2.03;1.70;;;;;;;19.52;62.51;96261.25;5104897;28;20073;-59
2022/07/12 06:32:58;;;;;;;1.65;1.40;;;;;;;19.63;60.99;96269.78;5109670;28;20024;-60
2022/07/12 06:35:23;;;;;;;1.70;1.60;;;;;;;19.77;60.96;96266.28;5087743;28;20060;-60
2022/07/12 06:37:48;;;;;;;3.58;1.77;;;;;;;19.81;60.10;96272.09;5099941;28;20501;-60
2022/07/12 06:40:16;;;;;;;1.80;1.70;;;;;;;19.81;60.47;96274.78;5107251;28;20084;-61
2022/07/12 06:42:42;;;;;;;9.63;1.92;;;;;;;20.14;60.02;96266.34;5111856;28;20024;-60
2022/07/12 06:45:09;;;;;;;3.05;1.90;;;;;;;20.61;58.69;96277.53;5106030;28;20023;-60
2022/07/12 06:47:34;;;;;;;1.60;1.55;;;;;;;21.01;57.33;96275.25;5102893;28;20546;-59
2022/07/12 06:49:59;;;;;;;3.47;2.00;;;;;;;21.40;55.78;96285.59;5094276;28;20026;-59
2022/07/12 06:52:25;;;;;;;4.43;1.73;;;;;;;21.74;53.88;96281.31;5093615;28;20036;-60
2022/07/12 06:54:50;;;;;;;1.60;1.50;;;;;;;22.20;52.81;96285.19;5093432;28;20032;-59
2022/07/12 06:57:15;;;;;;;2.45;1.55;;;;;;;22.68;50.58;96283.50;5092892;28;20039;-60
2022/07/12 06:59:41;;;;;;;1.30;1.30;;;;;;;23.18;50.36;96275.88;5093829;28;20080;-60
2022/07/12 07:02:06;;;;;;;2.65;1.73;;;;;;;23.63;48.29;96271.69;5104838;28;20046;-60
2022/07/12 07:04:32;;;;;;;2.30;1.60;;;;;;;23.81;47.18;96283.66;5106206;28;20078;-60
2022/07/12 07:06:57;;;;;;;1.70;1.60;;;;;;;24.07;47.46;96273.88;5091348;28;20035;-59
2022/07/12 07:09:23;;;;;;;1.65;1.55;;;;;;;24.27;45.95;96282.66;5092253;28;20115;-59
2022/07/12 07:11:48;;;;;;;1.65;1.45;;;;;;;24.47;45.83;96273.66;5092883;28;20039;-59
2022/07/12 07:14:14;;;;;;;2.58;1.33;;;;;;;24.77;44.64;96273.06;5093236;28;20474;-59
2022/07/12 07:16:39;;;;;;;1.67;1.50;;;;;;;25.10;45.07;96274.69;5092770;28;20028;-60
2022/07/12 07:19:05;;;;;;;1.35;1.23;;;;;;;25.17;43.54;96267.38;5093241;28;20020;-59
2022/07/12 07:21:31;;;;;;;2.08;1.30;;;;;;;25.51;43.66;96261.69;5092979;28;20032;-60
2022/07/12 07:23:57;;;;;;;1.85;1.50;;;;;;;25.71;42.45;96269.56;5093023;28;20024;-59
2022/07/12 07:26:22;;;;;;;1.95;1.30;;;;;;;25.97;42.10;96270.28;5092609;28;20028;-59
2022/07/12 07:31:36;;;;;;;1.38;1.30;;;;;;;26.23;40.25;96271.06;5092969;28;20089;-59
2022/07/12 07:34:02;;;;;;;2.58;1.35;;;;;;;26.19;40.80;96275.25;5092488;28;20040;-59
2022/07/12 07:36:28;;;;;;;2.00;1.38;;;;;;;26.59;39.95;96277.41;5092032;28;20027;-59
2022/07/12 07:38:53;;;;;;;1.38;1.33;;;;;;;26.91;39.60;96276.34;5092181;28;20051;-59
2022/07/12 07:41:18;;;;;;;5.22;1.60;;;;;;;27.40;38.86;96272.63;5092300;28;20032;-60
2022/07/12 07:43:44;;;;;;;3.83;1.25;;;;;;;27.42;37.27;96274.03;5091892;28;20055;-59
2022/07/12 07:46:09;;;;;;;1.52;1.42;;;;;;;27.26;38.42;96272.88;5092487;28;20038;-59
2022/07/12 07:48:35;;;;;;;4.32;1.35;;;;;;;27.19;38.95;96276.75;5091244;28;20107;-59
2022/07/12 07:51:00;;;;;;;2.15;1.35;;;;;;;27.13;38.40;96279.34;5092497;28;20153;-59
2022/07/12 07:53:26;;;;;;;1.30;1.20;;;;;;;27.30;38.58;96278.63;5091185;28;20028;-60
2022/07/12 07:55:51;;;;;;;1.45;1.35;;;;;;;27.98;36.08;96279.06;5091841;28;20036;-60
2022/07/12 07:58:16;;;;;;;6.13;1.40;;;;;;;28.09;36.70;96282.81;5091906;28;20098;-59
2022/07/12 08:00:42;;;;;;;5.82;1.38;;;;;;;28.10;36.29;96272.78;5092260;28;20086;-60
2022/07/12 08:03:07;;;;;;;1.40;1.30;;;;;;;28.19;35.25;96279.53;5092623;28;20573;-60
2022/07/12 08:05:33;;;;;;;3.20;1.40;;;;;;;28.24;36.54;96282.31;5092069;28;20064;-58
2022/07/12 08:07:58;;;;;;;1.65;1.02;;;;;;;28.39;35.27;96267.41;5092276;28;20020;-59
2022/07/12 08:10:25;;;;;;;1.30;1.20;;;;;;;28.63;35.64;96270.84;5091879;28;20039;-59
2022/07/12 08:12:50;;;;;;;3.47;1.55;;;;;;;29.07;34.60;96275.69;5092058;28;20727;-59
2022/07/12 08:15:16;;;;;;;4.97;1.10;;;;;;;29.00;34.86;96259.59;5091576;28;20054;-59
2022/07/12 08:17:41;;;;;;;1.48;1.02;;;;;;;29.10;34.33;96264.38;5092067;28;20024;-59
2022/07/12 08:20:07;;;;;;;3.13;1.00;;;;;;;29.14;33.69;96261.97;5091974;28;20153;-67
2022/07/12 08:22:33;;;;;;;6.22;1.10;;;;;;;29.14;33.42;96262.81;5091629;28;20035;-67
2022/07/12 08:24:58;;;;;;;1.70;1.20;;;;;;;29.07;33.40;96264.03;5091982;28;20066;-67
2022/07/12 08:27:24;;;;;;;1.10;1.10;;;;;;;29.36;33.24;96280.19;5096538;28;20065;-67
2022/07/12 08:29:49;;;;;;;1.95;1.30;;;;;;;29.35;33.79;96275.84;5112227;28;20034;-67
2022/07/12 08:32:15;;;;;;;1.02;0.93;;;;;;;29.60;32.69;96278.13;5112059;28;20034;-68
2022/07/12 08:34:41;;;;;;;1.98;1.25;;;;;;;29.73;32.63;96277.78;5112349;28;20054;-68
2022/07/12 08:37:06;;;;;;;4.60;1.20;;;;;;;29.79;32.93;96281.38;5111853;28;20054;-68
2022/07/12 08:39:31;;;;;;;3.50;1.20;;;;;;;29.76;33.01;96276.44;5111977;28;20031;-68
2022/07/12 08:41:57;;;;;;;1.55;1.13;;;;;;;30.06;32.03;96274.41;5112037;28;20028;-68
2022/07/12 08:44:22;;;;;;;3.10;1.27;;;;;;;29.92;32.47;96272.03;5091035;28;20024;-68
2022/07/12 08:46:47;;;;;;;1.27;0.90;;;;;;;29.93;32.36;96273.69;5092010;28;20028;-68
2022/07/12 08:49:13;;;;;;;3.45;1.40;;;;;;;29.81;33.17;96262.94;5111852;28;20051;-68
2022/07/12 08:51:38;;;;;;;1.92;1.08;;;;;;;29.82;32.14;96261.06;5111805;28;20056;-68
2022/07/12 08:54:13;;;;;;;1.58;1.20;;;;;;;29.73;33.04;96261.50;5111560;28;20074;-68
2022/07/12 08:56:41;;;;;;;5.93;1.27;;;;;;;30.02;32.55;96255.09;5111592;28;20538;-67
2022/07/12 08:59:19;;;;;;;1.20;0.98;;;;;;;30.02;32.13;96258.66;5111451;28;20031;-68
2022/07/12 09:01:45;;;;;;;1.20;1.10;;;;;;;30.19;32.19;96260.47;5111845;28;20036;-68
2022/07/12 09:04:27;;;;;;;1.33;1.20;;;;;;;30.19;31.62;96260.47;5111093;28;20584;-68
2022/07/12 09:06:53;;;;;;;6.35;1.40;;;;;;;30.21;33.04;96258.31;5111466;28;20103;-68
2022/07/12 09:09:37;;;;;;;1.35;1.05;;;;;;;30.62;32.35;96257.13;5111206;28;20549;-68
2022/07/12 09:12:02;;;;;;;1.33;1.10;;;;;;;30.82;31.00;96262.75;5111445;28;20020;-68
2022/07/12 09:14:28;;;;;;;1.20;1.10;;;;;;;30.77;31.48;96264.63;5106446;28;20115;-68
2022/07/12 09:17:09;;;;;;;3.42;1.77;;;;;;;30.54;31.38;96258.41;5090800;28;20028;-68
2022/07/12 09:19:36;;;;;;;4.38;3.97;;;;;;;31.01;30.79;96259.66;5089905;28;20081;-68
2022/07/12 09:22:02;;;;;;;4.28;1.85;;;;;;;31.20;30.54;96262.00;5090451;28;20028;-68
2022/07/12 09:24:28;;;;;;;1.85;1.40;;;;;;;31.35;30.27;96262.13;5090433;28;20016;-68
2022/07/12 09:27:02;;;;;;;4.97;1.30;;;;;;;31.06;30.85;96261.59;5090731;28;20085;-68
2022/07/12 09:29:27;;;;;;;1.77;1.40;;;;;;;30.56;31.96;96259.75;5089990;28;20081;-68
2022/07/12 09:37:23;;;;;;;1.00;1.00;;;;;;;31.05;30.43;96266.19;5090318;28;20131;-68
2022/07/12 09:39:51;;;;;;;1.20;1.20;;;;;;;31.02;28.41;96261.28;5090664;28;20054;-69
2022/07/12 09:42:18;;;;;;;1.10;1.10;;;;;;;30.48;30.21;96257.53;5089612;28;20503;-68
2022/07/12 09:44:43;;;;;;;3.08;1.40;;;;;;;30.76;30.29;96269.22;5090395;28;20032;-68
2022/07/12 09:47:15;;;;;;;2.75;1.40;;;;;;;31.13;29.97;96254.84;5094071;28;20061;-68
2022/07/12 09:49:44;;;;;;;3.10;1.20;;;;;;;31.46;28.05;96254.84;5110897;28;20030;-68
2022/07/12 09:52:26;;;;;;;1.27;1.17;;;;;;;31.83;27.50;96255.88;5110414;28;20536;-68
2022/07/12 09:54:54;;;;;;;2.42;2.22;;;;;;;31.94;28.63;96256.75;5110641;28;20034;-68
2022/07/12 09:57:26;;;;;;;1.30;1.10;;;;;;;32.08;28.18;96260.63;5092253;28;20074;-68
2022/07/12 09:59:52;;;;;;;2.40;1.92;;;;;;;32.29;26.90;96252.53;5110810;28;20057;-69
2022/07/12 10:02:18;;;;;;;2.58;1.60;;;;;;;32.52;26.90;96247.72;5110478;28;20023;-68
2022/07/12 10:04:46;;;;;;;2.85;1.02;;;;;;;32.15;27.31;96244.03;5110687;28;20092;-69
2022/07/12 10:07:16;;;;;;;1.38;1.20;;;;;;;31.88;28.26;96238.75;5110252;28;20469;-69
2022/07/12 10:09:43;;;;;;;3.22;1.25;;;;;;;32.26;26.94;96236.69;5110515;28;20028;-69
2022/07/12 10:12:10;;;;;;;1.38;1.27;;;;;;;32.21;27.94;96233.97;5110357;28;20443;-69
2022/07/12 10:14:38;;;;;;;4.68;1.60;;;;;;;32.43;27.43;96239.25;5109729;28;20068;-68
2022/07/12 10:17:08;;;;;;;2.60;1.40;;;;;;;32.64;25.86;96236.56;5110053;28;20030;-68
2022/07/12 10:19:36;;;;;;;1.40;1.30;;;;;;;33.05;26.95;96243.94;5110146;28;20030;-69
2022/07/12 10:22:02;;;;;;;1.40;1.27;;;;;;;32.93;26.34;96242.31;5110217;28;20024;-68
2022/07/12 10:24:31;;;;;;;3.38;1.13;;;;;;;32.42;28.38;96243.06;5110070;28;20097;-69
2022/07/12 10:27:17;;;;;;;5.75;1.10;;;;;;;32.28;28.35;96243.53;5110327;28;20019;-68
2022/07/12 10:29:46;;;;;;;1.25;1.15;;;;;;;32.50;28.33;96234.34;5096149;28;20126;-68
2022/07/12 10:32:40;;;;;;;1.00;1.00;;;;;;;33.05;27.15;96238.50;5110213;28;20034;-69
2022/07/12 10:35:11;;;;;;;1.00;0.95;;;;;;;32.71;27.30;96234.38;5089394;28;20031;-68
2022/07/12 10:37:37;;;;;;;1.50;1.10;;;;;;;32.96;26.99;96230.03;5110230;28;20034;-68
2022/07/12 10:40:19;;;;;;;3.60;1.17;;;;;;;33.15;26.17;96230.28;5110143;28;20023;-68
2022/07/12 10:46:23;;;;;;;5.30;0.90;;;;;;;32.74;27.14;96228.38;5064103;28;20043;-69
2022/07/12 10:48:49;;;;;;;0.80;0.73;;;;;;;33.06;27.36;96227.31;5107406;28;20024;-70
2022/07/12 10:51:19;;;;;;;1.35;1.02;;;;;;;33.42;27.23;96221.81;5109985;28;20387;-68
2022/07/12 10:53:45;;;;;;;1.95;1.02;;;;;;;33.81;25.12;96231.25;5109985;28;20051;-70
2022/07/12 10:56:22;;;;;;;1.10;1.10;;;;;;;34.03;24.95;96227.38;5110219;28;20097;-69
2022/07/12 10:58:55;;;;;;;1.13;0.90;;;;;;;34.05;25.61;96232.56;5109773;28;20123;-69
2022/07/12 11:01:22;;;;;;;2.65;1.20;;;;;;;33.94;26.35;96226.31;5109830;28;20028;-69
2022/07/12 11:03:53;;;;;;;1.20;1.08;;;;;;;33.71;26.21;96223.13;5109805;28;20027;-69
2022/07/12 11:06:21;;;;;;;1.25;1.08;;;;;;;33.98;25.45;96222.78;5109933;28;20102;-68
2022/07/12 11:08:49;;;;;;;1.02;0.90;;;;;;;34.50;25.32;96222.50;5110018;28;20819;-68
2022/07/12 11:11:15;;;;;;;0.50;0.50;;;;;;;34.25;25.77;96223.44;5078772;28;20066;-68
2022/07/12 11:13:41;;;;;;;3.17;0.82;;;;;;;34.59;24.70;96219.16;5084656;28;20133;-68
2022/07/12 11:16:06;;;;;;;1.55;1.00;;;;;;;34.50;24.40;96227.19;5093082;28;20032;-69
2022/07/12 11:18:33;;;;;;;2.00;1.17;;;;;;;34.81;24.58;96221.47;5092037;28;20028;-70
2022/07/12 11:21:00;;;;;;;2.35;1.30;;;;;;;34.52;24.11;96224.97;5098122;28;20016;-69
2022/07/12 11:23:26;;;;;;;1.50;0.80;;;;;;;34.27;24.84;96224.81;5109942;28;20027;-69
2022/07/12 11:26:03;;;;;;;3.55;0.70;;;;;;;34.63;23.13;96218.31;5109826;28;20478;-70
2022/07/12 11:28:30;;;;;;;0.65;0.65;;;;;;;34.66;23.73;96214.22;5113538;28;20491;-69
2022/07/12 11:31:05;;;;;;;0.63;0.63;;;;;;;34.67;23.44;96215.84;5113768;28;20027;-68
2022/07/12 11:33:33;;;;;;;1.13;0.95;;;;;;;34.62;23.97;96218.63;5106683;28;20541;-69
2022/07/12 11:36:00;;;;;;;0.70;0.70;;;;;;;34.71;24.66;96212.25;5104345;28;20498;-69
2022/07/12 11:38:27;;;;;;;1.00;0.63;;;;;;;34.74;23.95;96212.78;5074757;28;20024;-68
2022/07/12 11:41:00;;;;;;;2.10;0.60;;;;;;;34.79;22.89;96208.06;5092573;28;20024;-69
2022/07/12 11:43:26;;;;;;;1.52;0.80;;;;;;;34.53;23.89;96210.22;5092662;28;20032;-70
2022/07/12 11:45:55;;;;;;;1.50;0.52;;;;;;;34.92;23.59;96206.59;5092644;28;20027;-69